Time;durP1;ratioP1;P1;durP2;ratioP2;P2;SDS_P1;SDS_P2;PMS_P1;PMS_P2;Temp;Humidity;BMP_temperature;BMP_pressure;BME280_temperature;BME280_humidity;BME280_pressure;Samples;Min_cycle;Max_cycle;Signal;HPM_P1;HPM_P2
2021/08/20 00:00:23;;;;;;;7.27;4.30;;;;;;;;;;5032906;28;20467;-72
2021/08/20 00:02:49;;;;;;;5.63;4.33;;;;;;;;;;5033524;28;20446;-72
2021/08/20 00:05:15;;;;;;;8.00;4.17;;;;;;;;;;5037286;28;20534;-72
2021/08/20 00:07:41;;;;;;;4.60;3.90;;;;;;;;;;5031200;28;20823;-72
2021/08/20 00:10:08;;;;;;;7.40;3.90;;;;;;;;;;5040194;28;20807;-72
2021/08/20 00:12:34;;;;;;;4.67;3.87;;;;;;;;;;5034606;28;20453;-72
2021/08/20 00:15:00;;;;;;;12.90;4.73;;;;;;;;;;5035275;28;20517;-72
2021/08/20 00:17:27;;;;;;;9.60;5.07;;;;;;;;;;5032653;28;20432;-72
2021/08/20 00:19:53;;;;;;;6.20;4.63;;;;;;;;;;5031481;28;20471;-72
2021/08/20 00:22:19;;;;;;;5.50;4.77;;;;;;;;;;5041167;28;20428;-72
2021/08/20 00:24:45;;;;;;;9.90;5.20;;;;;;;;;;5025187;28;20511;-72
2021/08/20 00:27:11;;;;;;;5.13;4.27;;;;;;;;;;5033316;28;20469;-71
2021/08/20 00:29:37;;;;;;;7.00;5.40;;;;;;;;;;5037378;28;20905;-72
2021/08/20 00:32:04;;;;;;;8.03;5.07;;;;;;;;;;5033055;28;20454;-72
2021/08/20 00:34:30;;;;;;;6.87;5.30;;;;;;;;;;5032636;28;20426;-72
2021/08/20 00:36:56;;;;;;;5.63;5.03;;;;;;;;;;5032665;28;20534;-71
2021/08/20 00:39:23;;;;;;;8.03;5.40;;;;;;;;;;5035588;28;20462;-73
2021/08/20 00:41:49;;;;;;;5.40;4.40;;;;;;;;;;5036224;28;20429;-72
2021/08/20 00:44:15;;;;;;;6.63;4.73;;;;;;;;;;5036614;28;20427;-72
2021/08/20 00:46:41;;;;;;;7.20;5.47;;;;;;;;;;5036655;28;20435;-72
2021/08/20 00:49:07;;;;;;;8.80;5.00;;;;;;;;;;5036442;28;20476;-72
2021/08/20 00:51:36;;;;;;;8.97;5.00;;;;;;;;;;5037002;28;20441;-72
2021/08/20 00:54:02;;;;;;;5.97;4.97;;;;;;;;;;5036364;28;20503;-73
2021/08/20 00:56:28;;;;;;;6.33;5.20;;;;;;;;;;5037438;28;20800;-73
2021/08/20 00:58:55;;;;;;;7.73;5.10;;;;;;;;;;5038743;28;20866;-73
2021/08/20 01:01:21;;;;;;;5.40;4.60;;;;;;;;;;5036887;28;20463;-73
2021/08/20 01:03:47;;;;;;;7.23;4.97;;;;;;;;;;5036281;28;20430;-73
2021/08/20 01:06:13;;;;;;;8.33;4.43;;;;;;;;;;5036661;28;20504;-73
2021/08/20 01:08:39;;;;;;;6.63;5.13;;;;;;;;;;5035932;28;20423;-72
2021/08/20 01:11:07;;;;;;;6.00;4.73;;;;;;;;;;5036099;28;20436;-72
2021/08/20 01:13:34;;;;;;;8.67;5.30;;;;;;;;;;5034525;28;20430;-72
2021/08/20 01:16:01;;;;;;;10.97;4.60;;;;;;;;;;5036161;28;20451;-73
2021/08/20 01:18:28;;;;;;;6.67;4.80;;;;;;;;;;5034659;28;20503;-72
2021/08/20 01:20:55;;;;;;;9.40;6.00;;;;;;;;;;5038001;28;20468;-73
2021/08/20 01:23:22;;;;;;;8.33;4.93;;;;;;;;;;5030779;28;20789;-72
2021/08/20 01:25:48;;;;;;;6.73;5.10;;;;;;;;;;5036144;28;20441;-72
2021/08/20 01:28:14;;;;;;;6.63;5.17;;;;;;;;;;5035290;28;20430;-72
2021/08/20 01:30:40;;;;;;;8.00;5.30;;;;;;;;;;5036139;28;20777;-72
2021/08/20 01:33:07;;;;;;;6.67;5.30;;;;;;;;;;5036136;28;20429;-72
2021/08/20 01:35:33;;;;;;;8.33;5.53;;;;;;;;;;5035838;28;20874;-72
2021/08/20 01:37:59;;;;;;;7.00;5.63;;;;;;;;;;5035307;28;20801;-71
2021/08/20 01:40:26;;;;;;;7.03;5.57;;;;;;;;;;5035372;28;20552;-71
2021/08/20 01:42:52;;;;;;;6.57;4.90;;;;;;;;;;5035841;28;20423;-71
2021/08/20 01:45:18;;;;;;;6.93;5.60;;;;;;;;;;5035207;28;20451;-71
2021/08/20 01:47:44;;;;;;;9.30;5.63;;;;;;;;;;5035568;28;20412;-71
2021/08/20 01:50:11;;;;;;;6.17;5.10;;;;;;;;;;5034116;28;20491;-72
2021/08/20 01:52:37;;;;;;;9.67;5.00;;;;;;;;;;5035710;28;20918;-71
2021/08/20 01:55:07;;;;;;;6.57;5.27;;;;;;;;;;5034566;28;20439;-71
2021/08/20 01:57:34;;;;;;;7.17;4.80;;;;;;;;;;5035675;28;20431;-72
2021/08/20 02:00:00;;;;;;;9.27;5.90;;;;;;;;;;5034317;28;20817;-72
2021/08/20 02:02:26;;;;;;;6.27;5.50;;;;;;;;;;5035206;28;20431;-72
2021/08/20 02:04:52;;;;;;;7.83;5.70;;;;;;;;;;5034695;28;20852;-71
2021/08/20 02:07:18;;;;;;;5.63;5.00;;;;;;;;;;5035192;28;20462;-71
2021/08/20 02:09:47;;;;;;;7.67;5.37;;;;;;;;;;5035145;28;20429;-71
2021/08/20 02:12:14;;;;;;;9.30;5.40;;;;;;;;;;5035293;28;20417;-72
2021/08/20 02:14:40;;;;;;;8.80;5.23;;;;;;;;;;5030348;28;20429;-73
2021/08/20 02:17:06;;;;;;;8.57;5.70;;;;;;;;;;5031899;28;20421;-72
2021/08/20 02:19:33;;;;;;;8.80;5.40;;;;;;;;;;5034708;28;20463;-72
2021/08/20 02:21:59;;;;;;;8.90;6.30;;;;;;;;;;5035546;28;20426;-72
2021/08/20 02:24:25;;;;;;;8.43;6.10;;;;;;;;;;5032803;28;20435;-72
2021/08/20 02:26:51;;;;;;;10.20;6.70;;;;;;;;;;5034455;28;20445;-72
2021/08/20 02:29:17;;;;;;;8.53;6.30;;;;;;;;;;5033656;28;20957;-72
2021/08/20 02:31:43;;;;;;;10.17;6.70;;;;;;;;;;5035154;28;20418;-71
2021/08/20 02:34:09;;;;;;;10.83;6.70;;;;;;;;;;5034633;28;20449;-71
2021/08/20 02:36:35;;;;;;;12.20;6.33;;;;;;;;;;5032672;28;20492;-72
2021/08/20 02:39:01;;;;;;;8.87;6.13;;;;;;;;;;5034703;28;20422;-72
2021/08/20 02:41:29;;;;;;;10.90;6.23;;;;;;;;;;5034953;28;20981;-73
2021/08/20 02:43:55;;;;;;;11.23;6.03;;;;;;;;;;5034414;28;20542;-71
2021/08/20 02:46:21;;;;;;;9.23;6.23;;;;;;;;;;5034457;28;20944;-71
2021/08/20 02:48:47;;;;;;;9.97;6.60;;;;;;;;;;5034177;28;20497;-72
2021/08/20 02:51:13;;;;;;;11.43;7.57;;;;;;;;;;5034425;28;20428;-71
2021/08/20 02:53:40;;;;;;;14.57;7.50;;;;;;;;;;5034438;28;20465;-72
2021/08/20 02:56:07;;;;;;;10.57;6.63;;;;;;;;;;5034391;28;20514;-71
2021/08/20 02:58:33;;;;;;;9.67;6.27;;;;;;;;;;5046985;28;20855;-72
2021/08/20 03:00:59;;;;;;;9.60;6.77;;;;;;;;;;5044189;28;20821;-72
2021/08/20 03:03:25;;;;;;;11.57;6.80;;;;;;;;;;5034171;28;20444;-73
2021/08/20 03:05:51;;;;;;;10.90;6.80;;;;;;;;;;5034228;28;20455;-72
2021/08/20 03:08:17;;;;;;;15.20;7.80;;;;;;;;;;5033882;28;20421;-73
2021/08/20 03:10:43;;;;;;;15.70;7.63;;;;;;;;;;5034354;28;20498;-71
2021/08/20 03:13:09;;;;;;;10.00;6.80;;;;;;;;;;5034115;28;20788;-71
2021/08/20 03:15:36;;;;;;;10.43;6.40;;;;;;;;;;5026799;28;20488;-71
2021/08/20 03:18:02;;;;;;;11.93;7.67;;;;;;;;;;5034078;28;20435;-71
2021/08/20 03:20:28;;;;;;;13.43;7.17;;;;;;;;;;5033630;28;20460;-72
2021/08/20 03:22:54;;;;;;;12.60;6.47;;;;;;;;;;5032556;28;20432;-71
2021/08/20 03:25:20;;;;;;;13.00;6.90;;;;;;;;;;5033186;28;20445;-72
2021/08/20 03:27:46;;;;;;;9.90;7.03;;;;;;;;;;5033558;28;20428;-72
2021/08/20 03:30:12;;;;;;;11.70;6.80;;;;;;;;;;5031436;28;20433;-72
2021/08/20 03:32:38;;;;;;;12.60;6.93;;;;;;;;;;5033994;28;20917;-71
2021/08/20 03:35:06;;;;;;;12.07;7.33;;;;;;;;;;5033058;28;20444;-71
2021/08/20 03:37:32;;;;;;;12.57;7.00;;;;;;;;;;5050394;28;20795;-72
2021/08/20 03:39:58;;;;;;;13.40;7.30;;;;;;;;;;5033067;28;20580;-72
2021/08/20 03:42:24;;;;;;;13.13;7.33;;;;;;;;;;5032482;28;20825;-73
2021/08/20 03:44:50;;;;;;;12.93;7.93;;;;;;;;;;5033001;28;20429;-72
2021/08/20 03:47:16;;;;;;;11.87;6.80;;;;;;;;;;5033144;28;20416;-72
2021/08/20 03:49:42;;;;;;;12.80;7.30;;;;;;;;;;5033279;28;20511;-72
2021/08/20 03:52:08;;;;;;;12.13;7.50;;;;;;;;;;5033697;28;20417;-72
2021/08/20 03:54:34;;;;;;;11.00;7.53;;;;;;;;;;5030586;28;20471;-72
2021/08/20 03:57:00;;;;;;;11.73;7.10;;;;;;;;;;5034762;28;20439;-72
2021/08/20 03:59:26;;;;;;;10.30;7.17;;;;;;;;;;5032440;28;20461;-71
2021/08/20 04:01:52;;;;;;;11.30;8.17;;;;;;;;;;5036101;28;20424;-72
2021/08/20 04:04:18;;;;;;;12.00;7.37;;;;;;;;;;5033692;28;20414;-71
2021/08/20 04:06:44;;;;;;;9.90;6.73;;;;;;;;;;5033149;28;20464;-71
2021/08/20 04:09:10;;;;;;;11.13;7.00;;;;;;;;;;5033773;28;20409;-71
2021/08/20 04:11:36;;;;;;;14.03;8.20;;;;;;;;;;5033141;28;20432;-72
2021/08/20 04:14:03;;;;;;;12.87;7.43;;;;;;;;;;5032586;28;20431;-72
2021/08/20 04:16:34;;;;;;;9.73;6.90;;;;;;;;;;5024886;28;20953;-71
2021/08/20 04:19:00;;;;;;;12.40;7.40;;;;;;;;;;5049831;28;20483;-71
2021/08/20 04:21:26;;;;;;;10.47;7.77;;;;;;;;;;5034572;28;20653;-72
2021/08/20 04:23:52;;;;;;;13.10;7.53;;;;;;;;;;5053104;28;20442;-71
2021/08/20 04:26:18;;;;;;;12.40;8.27;;;;;;;;;;5049052;28;20455;-71
2021/08/20 04:28:44;;;;;;;10.07;6.73;;;;;;;;;;5048465;28;20404;-72
2021/08/20 04:31:11;;;;;;;7.00;6.00;;;;;;;;;;5032153;28;20427;-73
2021/08/20 04:33:37;;;;;;;9.97;5.83;;;;;;;;;;5028154;28;20465;-72
2021/08/20 04:36:03;;;;;;;10.77;6.67;;;;;;;;;;5032574;28;20453;-71
2021/08/20 04:38:29;;;;;;;9.63;6.37;;;;;;;;;;5022661;28;20494;-71
2021/08/20 04:40:55;;;;;;;7.73;6.40;;;;;;;;;;5030809;28;20464;-71
2021/08/20 04:43:21;;;;;;;12.00;6.43;;;;;;;;;;5032510;28;20479;-71
2021/08/20 04:45:47;;;;;;;9.10;6.33;;;;;;;;;;5032132;28;20440;-71
2021/08/20 04:48:13;;;;;;;7.67;6.27;;;;;;;;;;5032618;28;20413;-71
2021/08/20 04:50:39;;;;;;;9.60;6.07;;;;;;;;;;5032354;28;20420;-72
2021/08/20 04:53:05;;;;;;;9.80;6.53;;;;;;;;;;5030490;28;20445;-71
2021/08/20 04:55:31;;;;;;;9.80;6.43;;;;;;;;;;5024641;28;20481;-71
2021/08/20 04:57:57;;;;;;;10.60;5.77;;;;;;;;;;5039867;28;20422;-72
2021/08/20 05:00:23;;;;;;;8.83;5.63;;;;;;;;;;5040892;28;20460;-72
2021/08/20 05:02:49;;;;;;;9.23;6.20;;;;;;;;;;5032535;28;20871;-72
2021/08/20 05:05:15;;;;;;;6.03;5.40;;;;;;;;;;5036130;28;20449;-72
2021/08/20 05:07:41;;;;;;;8.27;6.10;;;;;;;;;;5038823;28;20422;-72
2021/08/20 05:10:11;;;;;;;10.80;5.20;;;;;;;;;;5042572;28;20437;-72
2021/08/20 05:12:37;;;;;;;9.27;5.77;;;;;;;;;;5032787;28;20462;-72
2021/08/20 05:15:04;;;;;;;8.67;6.47;;;;;;;;;;5030616;28;20473;-72
2021/08/20 05:17:30;;;;;;;8.57;5.60;;;;;;;;;;5032166;28;20417;-72
2021/08/20 05:19:56;;;;;;;7.93;6.17;;;;;;;;;;5032056;28;20868;-71
2021/08/20 05:22:22;;;;;;;7.60;5.90;;;;;;;;;;5032320;28;20917;-72
2021/08/20 05:24:48;;;;;;;9.43;7.40;;;;;;;;;;5034481;28;20432;-72
2021/08/20 05:27:14;;;;;;;9.60;5.63;;;;;;;;;;5035841;28;20416;-72
2021/08/20 05:29:40;;;;;;;8.10;5.90;;;;;;;;;;5035444;28;20816;-72
2021/08/20 05:32:06;;;;;;;11.03;6.80;;;;;;;;;;5035932;28;20481;-72
2021/08/20 05:34:33;;;;;;;7.70;6.33;;;;;;;;;;5035785;28;20421;-72
2021/08/20 05:36:59;;;;;;;6.87;5.90;;;;;;;;;;5035191;28;20459;-71
2021/08/20 05:39:25;;;;;;;12.33;6.80;;;;;;;;;;5033323;28;20429;-72
2021/08/20 05:41:51;;;;;;;9.87;7.30;;;;;;;;;;5035407;28;20440;-71
2021/08/20 05:44:17;;;;;;;9.03;7.20;;;;;;;;;;5035865;28;20429;-72
2021/08/20 05:46:43;;;;;;;13.47;7.67;;;;;;;;;;5025478;28;20495;-72
2021/08/20 05:49:09;;;;;;;10.70;7.20;;;;;;;;;;5045482;28;20420;-72
2021/08/20 05:51:36;;;;;;;11.20;7.70;;;;;;;;;;5037140;28;20429;-72
2021/08/20 05:54:02;;;;;;;9.30;7.07;;;;;;;;;;5035796;28;20421;-73
2021/08/20 05:56:28;;;;;;;11.43;8.60;;;;;;;;;;5032934;28;20444;-73
2021/08/20 05:58:54;;;;;;;11.20;8.57;;;;;;;;;;5035218;28;20426;-72
2021/08/20 06:01:20;;;;;;;13.07;9.30;;;;;;;;;;5035146;28;20466;-72
2021/08/20 06:03:46;;;;;;;11.03;9.00;;;;;;;;;;5035264;28;20754;-71
2021/08/20 06:06:13;;;;;;;11.30;8.40;;;;;;;;;;5035615;28;20458;-72
2021/08/20 06:08:39;;;;;;;10.30;9.20;;;;;;;;;;5055074;28;20416;-72
2021/08/20 06:11:06;;;;;;;15.43;11.40;;;;;;;;;;5044372;28;20509;-72
2021/08/20 06:13:32;;;;;;;12.10;9.63;;;;;;;;;;5035452;28;20425;-71
2021/08/20 06:15:58;;;;;;;12.70;8.83;;;;;;;;;;5051451;28;20429;-73
2021/08/20 06:18:24;;;;;;;9.10;6.90;;;;;;;;;;5054572;28;20815;-72
2021/08/20 06:20:50;;;;;;;12.70;8.30;;;;;;;;;;5048417;28;20472;-71
2021/08/20 06:23:16;;;;;;;10.73;7.70;;;;;;;;;;5043664;28;20418;-72
2021/08/20 06:25:42;;;;;;;10.07;7.57;;;;;;;;;;5038085;28;20428;-70
2021/08/20 06:28:08;;;;;;;7.33;6.20;;;;;;;;;;5054621;28;20419;-70
2021/08/20 06:30:34;;;;;;;8.67;5.70;;;;;;;;;;5035468;28;20893;-72
2021/08/20 06:33:00;;;;;;;9.50;6.20;;;;;;;;;;5034955;28;20415;-70
2021/08/20 06:35:26;;;;;;;11.30;6.30;;;;;;;;;;5033976;28;20443;-71
2021/08/20 06:37:52;;;;;;;10.03;7.00;;;;;;;;;;5028123;28;20458;-72
2021/08/20 06:40:18;;;;;;;10.57;8.63;;;;;;;;;;5034735;28;20462;-71
2021/08/20 06:42:44;;;;;;;9.30;7.93;;;;;;;;;;5030773;28;20420;-71
2021/08/20 06:45:10;;;;;;;16.37;11.90;;;;;;;;;;5029731;28;20836;-71
2021/08/20 06:47:36;;;;;;;17.00;13.00;;;;;;;;;;5023158;28;20953;-72
2021/08/20 06:50:02;;;;;;;10.30;9.10;;;;;;;;;;5026937;28;20437;-72
2021/08/20 06:52:29;;;;;;;10.27;8.50;;;;;;;;;;5030014;28;20499;-72
2021/08/20 06:54:58;;;;;;;8.80;6.70;;;;;;;;;;5029367;28;20479;-72
2021/08/20 06:57:24;;;;;;;7.43;4.97;;;;;;;;;;5035620;28;20474;-72
2021/08/20 06:59:51;;;;;;;5.70;4.67;;;;;;;;;;5040437;28;20465;-72
2021/08/20 07:02:17;;;;;;;5.40;4.90;;;;;;;;;;5039825;28;20429;-72
2021/08/20 07:04:43;;;;;;;4.70;4.20;;;;;;;;;;5030425;28;20432;-71
2021/08/20 07:07:09;;;;;;;4.87;4.30;;;;;;;;;;5031235;28;20453;-71
2021/08/20 07:09:38;;;;;;;4.37;3.97;;;;;;;;;;5050446;28;20447;-71
2021/08/20 07:12:04;;;;;;;4.37;3.97;;;;;;;;;;5037472;28;20816;-71
2021/08/20 07:14:30;;;;;;;5.13;4.60;;;;;;;;;;5050419;28;20463;-71
2021/08/20 07:16:56;;;;;;;4.80;4.33;;;;;;;;;;5039437;28;21286;-70
2021/08/20 07:19:23;;;;;;;5.90;5.27;;;;;;;;;;5022759;28;20430;-71
2021/08/20 07:21:49;;;;;;;6.53;5.93;;;;;;;;;;5020866;28;20433;-71
2021/08/20 07:24:15;;;;;;;5.30;4.60;;;;;;;;;;5029924;28;20430;-71
2021/08/20 07:26:41;;;;;;;7.13;5.00;;;;;;;;;;5029649;28;20454;-71
2021/08/20 07:29:07;;;;;;;5.13;4.63;;;;;;;;;;5030022;28;20770;-71
2021/08/20 07:31:36;;;;;;;5.67;5.07;;;;;;;;;;5029976;28;20430;-71
2021/08/20 07:34:02;;;;;;;6.30;5.70;;;;;;;;;;5030281;28;20416;-72
2021/08/20 07:36:28;;;;;;;5.10;4.60;;;;;;;;;;5029784;28;20458;-71
2021/08/20 07:38:54;;;;;;;3.27;2.93;;;;;;;;;;5029045;28;20445;-71
2021/08/20 07:41:20;;;;;;;4.13;3.10;;;;;;;;;;5025601;28;20593;-72
2021/08/20 07:43:47;;;;;;;4.00;3.57;;;;;;;;;;5039995;28;20897;-72
2021/08/20 07:46:13;;;;;;;3.70;3.40;;;;;;;;;;5035751;28;20452;-72
2021/08/20 07:48:38;;;;;;;4.00;3.60;;;;;;;;;;5028496;28;20416;-72
2021/08/20 07:51:04;;;;;;;4.03;3.70;;;;;;;;;;5029561;28;20433;-72
2021/08/20 07:53:30;;;;;;;5.07;3.93;;;;;;;;;;5049485;28;20504;-72
2021/08/20 07:55:58;;;;;;;3.73;3.10;;;;;;;;;;5033845;28;20805;-71
2021/08/20 07:58:24;;;;;;;4.03;3.63;;;;;;;;;;5028755;28;20849;-72
2021/08/20 08:00:50;;;;;;;4.00;3.70;;;;;;;;;;5029204;28;20565;-73
2021/08/20 08:03:16;;;;;;;4.30;3.90;;;;;;;;;;5028701;28;20526;-72
2021/08/20 08:05:42;;;;;;;4.23;3.60;;;;;;;;;;5020749;28;20465;-72
2021/08/20 08:08:08;;;;;;;4.60;4.20;;;;;;;;;;5027760;28;20429;-73
2021/08/20 08:10:34;;;;;;;5.30;4.70;;;;;;;;;;5028213;28;20479;-73
2021/08/20 08:13:00;;;;;;;8.07;5.30;;;;;;;;;;5027876;28;20459;-73
2021/08/20 08:15:26;;;;;;;6.50;5.33;;;;;;;;;;5044717;28;20805;-73
2021/08/20 08:17:52;;;;;;;6.70;5.93;;;;;;;;;;5048759;28;20425;-72
2021/08/20 08:20:18;;;;;;;7.50;5.70;;;;;;;;;;5035119;28;20460;-71
2021/08/20 08:22:45;;;;;;;7.57;6.77;;;;;;;;;;5043812;28;20560;-72
2021/08/20 08:25:11;;;;;;;7.80;6.07;;;;;;;;;;5044556;28;20446;-73
2021/08/20 08:27:50;;;;;;;7.73;6.93;;;;;;;;;;5043796;28;20441;-73
2021/08/20 08:30:16;;;;;;;9.00;7.67;;;;;;;;;;5031446;28;20774;-71
2021/08/20 08:32:42;;;;;;;9.70;7.37;;;;;;;;;;5025901;28;20455;-71
2021/08/20 08:35:08;;;;;;;8.87;7.57;;;;;;;;;;5032543;28;20439;-72
2021/08/20 08:37:34;;;;;;;8.00;7.13;;;;;;;;;;5028406;28;20428;-73
2021/08/20 08:40:00;;;;;;;15.13;13.30;;;;;;;;;;5028895;28;20471;-73
2021/08/20 08:42:26;;;;;;;43.37;31.70;;;;;;;;;;5037175;28;20442;-72
2021/08/20 08:44:52;;;;;;;12.87;11.23;;;;;;;;;;5038216;28;20545;-72
2021/08/20 08:47:19;;;;;;;8.37;7.57;;;;;;;;;;5027741;28;20497;-72
2021/08/20 08:49:46;;;;;;;10.83;8.10;;;;;;;;;;5028203;28;20475;-73
2021/08/20 08:52:12;;;;;;;11.40;7.73;;;;;;;;;;5028887;28;20933;-74
2021/08/20 08:54:38;;;;;;;8.00;6.90;;;;;;;;;;5024926;28;20820;-71
2021/08/20 08:57:05;;;;;;;10.37;8.07;;;;;;;;;;5024556;28;20454;-72
2021/08/20 08:59:31;;;;;;;10.77;8.17;;;;;;;;;;5026508;28;20903;-72
2021/08/20 09:01:57;;;;;;;10.67;8.83;;;;;;;;;;5032754;28;20427;-72
2021/08/20 09:04:23;;;;;;;9.60;8.00;;;;;;;;;;5032595;28;21204;-73
2021/08/20 09:06:56;;;;;;;11.63;8.83;;;;;;;;;;5032127;28;20458;-72
2021/08/20 09:09:25;;;;;;;13.60;10.67;;;;;;;;;;5032628;28;20428;-74
2021/08/20 09:11:58;;;;;;;13.20;9.90;;;;;;;;;;5031330;28;20435;-72
2021/08/20 09:14:35;;;;;;;10.10;8.60;;;;;;;;;;5032504;28;20420;-72
2021/08/20 09:17:01;;;;;;;12.20;9.77;;;;;;;;;;5032012;28;20792;-72
2021/08/20 09:19:28;;;;;;;14.37;9.80;;;;;;;;;;5032408;28;20424;-73
2021/08/20 09:21:56;;;;;;;11.27;9.90;;;;;;;;;;5032649;28;20416;-73
2021/08/20 09:24:35;;;;;;;14.70;10.40;;;;;;;;;;5032518;28;20423;-73
2021/08/20 09:27:17;;;;;;;12.30;10.80;;;;;;;;;;5023347;28;20551;-73
2021/08/20 09:30:04;;;;;;;12.60;10.60;;;;;;;;;;5031942;28;20887;-72
2021/08/20 09:32:31;;;;;;;11.50;9.57;;;;;;;;;;5049824;28;20414;-72
2021/08/20 09:34:58;;;;;;;14.20;12.00;;;;;;;;;;5040445;28;20429;-72
2021/08/20 09:37:25;;;;;;;13.10;11.70;;;;;;;;;;5031439;28;20416;-73
2021/08/20 09:39:57;;;;;;;13.87;11.73;;;;;;;;;;5031122;28;20555;-72
2021/08/20 09:42:23;;;;;;;16.97;14.23;;;;;;;;;;5029978;28;20521;-73
2021/08/20 09:45:09;;;;;;;13.87;12.30;;;;;;;;;;5051760;28;20419;-73
2021/08/20 09:47:40;;;;;;;14.50;12.30;;;;;;;;;;5044908;28;20428;-72
2021/08/20 09:50:06;;;;;;;15.83;12.20;;;;;;;;;;5028602;28;20598;-73
2021/08/20 09:52:32;;;;;;;15.60;12.17;;;;;;;;;;5031403;28;20443;-72
2021/08/20 09:54:58;;;;;;;16.10;12.53;;;;;;;;;;5031308;28;20456;-71
2021/08/20 09:57:28;;;;;;;18.17;14.10;;;;;;;;;;5036873;28;20488;-70
2021/08/20 09:59:55;;;;;;;17.33;13.13;;;;;;;;;;5030221;28;20558;-70
2021/08/20 10:02:24;;;;;;;19.53;14.83;;;;;;;;;;5031323;28;20435;-70
2021/08/20 10:04:50;;;;;;;16.53;12.80;;;;;;;;;;5031156;28;20416;-71
2021/08/20 10:07:18;;;;;;;18.03;12.77;;;;;;;;;;5030656;28;20449;-71
2021/08/20 10:09:46;;;;;;;15.60;12.83;;;;;;;;;;5031117;28;20538;-71
2021/08/20 10:12:12;;;;;;;16.10;11.80;;;;;;;;;;5030479;28;20447;-71
2021/08/20 10:14:39;;;;;;;14.60;11.00;;;;;;;;;;5031265;28;20816;-71
2021/08/20 10:17:05;;;;;;;15.47;11.33;;;;;;;;;;5030540;28;20429;-71
2021/08/20 10:19:31;;;;;;;12.70;11.30;;;;;;;;;;5031374;28;20458;-71
2021/08/20 10:21:57;;;;;;;12.90;11.60;;;;;;;;;;5031110;28;20435;-72
2021/08/20 10:24:23;;;;;;;15.60;12.40;;;;;;;;;;5031130;28;20452;-72
2021/08/20 10:26:54;;;;;;;16.63;13.50;;;;;;;;;;5025019;28;20457;-73
2021/08/20 10:29:25;;;;;;;14.33;12.37;;;;;;;;;;5032352;28;20417;-70
2021/08/20 10:31:51;;;;;;;15.00;13.50;;;;;;;;;;5030855;28;20796;-72
2021/08/20 10:34:32;;;;;;;15.63;13.43;;;;;;;;;;5031033;28;20901;-72
2021/08/20 10:37:18;;;;;;;15.07;13.57;;;;;;;;;;5028774;28;20460;-72
2021/08/20 10:39:48;;;;;;;13.47;12.10;;;;;;;;;;5027687;28;20580;-73
2021/08/20 10:42:16;;;;;;;13.80;12.40;;;;;;;;;;5028964;28;20416;-73
2021/08/20 10:44:43;;;;;;;13.17;11.77;;;;;;;;;;5030649;28;20464;-73
2021/08/20 10:47:20;;;;;;;14.83;13.13;;;;;;;;;;5030113;28;20511;-73
2021/08/20 10:49:47;;;;;;;15.43;13.83;;;;;;;;;;5030224;28;20439;-73
2021/08/20 10:52:27;;;;;;;14.47;12.97;;;;;;;;;;5030254;28;20509;-73
2021/08/20 10:54:56;;;;;;;14.00;12.53;;;;;;;;;;5029097;28;20976;-73
2021/08/20 10:57:42;;;;;;;24.10;18.57;;;;;;;;;;5039515;28;20429;-74
2021/08/20 11:00:09;;;;;;;13.80;12.27;;;;;;;;;;5030111;28;20471;-73
2021/08/20 11:02:47;;;;;;;13.03;10.40;;;;;;;;;;5029694;28;20443;-74
2021/08/20 11:05:19;;;;;;;11.83;10.70;;;;;;;;;;5037199;28;20462;-72
2021/08/20 11:07:48;;;;;;;11.30;9.70;;;;;;;;;;5025238;28;20913;-72
2021/08/20 11:10:14;;;;;;;10.90;9.70;;;;;;;;;;5030700;28;20425;-72
2021/08/20 11:12:47;;;;;;;9.90;8.90;;;;;;;;;;5025227;28;20507;-73
2021/08/20 11:15:25;;;;;;;8.70;7.90;;;;;;;;;;5024049;28;20451;-72
2021/08/20 11:17:54;;;;;;;9.07;8.17;;;;;;;;;;5024369;28;20825;-71
2021/08/20 11:20:41;;;;;;;9.47;8.13;;;;;;;;;;5031810;28;20466;-74
2021/08/20 11:23:10;;;;;;;8.20;7.50;;;;;;;;;;5049641;28;20446;-72
2021/08/20 11:25:40;;;;;;;7.00;6.50;;;;;;;;;;5034456;28;20440;-72
2021/08/20 11:28:23;;;;;;;7.63;7.00;;;;;;;;;;5029511;28;20428;-72
2021/08/20 11:30:59;;;;;;;7.60;7.00;;;;;;;;;;5027835;28;20527;-72
2021/08/20 11:33:29;;;;;;;7.40;6.67;;;;;;;;;;5031813;28;20932;-71
2021/08/20 11:35:57;;;;;;;8.47;7.77;;;;;;;;;;5029725;28;20543;-72
2021/08/20 11:38:27;;;;;;;8.67;7.87;;;;;;;;;;5029325;28;20417;-71
2021/08/20 11:40:54;;;;;;;9.27;8.47;;;;;;;;;;5013398;28;20851;-72
2021/08/20 11:43:22;;;;;;;10.63;8.40;;;;;;;;;;5023263;28;20536;-72
2021/08/20 11:45:53;;;;;;;9.10;8.23;;;;;;;;;;5029600;28;21009;-72
2021/08/20 11:48:19;;;;;;;8.83;8.13;;;;;;;;;;5028696;28;20428;-72
2021/08/20 11:50:47;;;;;;;9.90;8.90;;;;;;;;;;5029450;28;20530;-71
2021/08/20 11:53:19;;;;;;;12.13;10.83;;;;;;;;;;5029189;28;20432;-71
2021/08/20 11:55:45;;;;;;;9.57;8.67;;;;;;;;;;5022792;28;20489;-74
2021/08/20 11:58:24;;;;;;;9.60;8.70;;;;;;;;;;5031164;28;20464;-72
2021/08/20 12:00:50;;;;;;;9.93;9.03;;;;;;;;;;5030269;28;21049;-72
2021/08/20 12:03:16;;;;;;;9.80;8.90;;;;;;;;;;5028928;28;20483;-71
2021/08/20 12:05:43;;;;;;;9.23;8.40;;;;;;;;;;5029101;28;20487;-73
2021/08/20 12:08:18;;;;;;;8.70;8.00;;;;;;;;;;5028963;28;20424;-71
2021/08/20 12:10:45;;;;;;;9.10;8.27;;;;;;;;;;5029281;28;20766;-70
2021/08/20 12:13:13;;;;;;;8.43;7.40;;;;;;;;;;5029109;28;20423;-71
2021/08/20 12:15:39;;;;;;;10.13;6.70;;;;;;;;;;5023557;28;20548;-71
2021/08/20 12:18:18;;;;;;;6.67;6.07;;;;;;;;;;5043751;28;20573;-71
2021/08/20 12:20:44;;;;;;;6.43;5.93;;;;;;;;;;5041750;28;20507;-71
2021/08/20 12:23:10;;;;;;;6.37;5.50;;;;;;;;;;5048199;28;20501;-71
2021/08/20 12:25:39;;;;;;;6.07;5.53;;;;;;;;;;5043243;28;21025;-71
2021/08/20 12:28:11;;;;;;;6.70;6.10;;;;;;;;;;5028609;28;20412;-71
2021/08/20 12:30:37;;;;;;;6.10;5.60;;;;;;;;;;5028802;28;20518;-72
2021/08/20 12:33:04;;;;;;;6.40;5.90;;;;;;;;;;5028522;28;20416;-72
2021/08/20 12:35:33;;;;;;;6.80;5.57;;;;;;;;;;5028696;28;20456;-72
2021/08/20 12:37:59;;;;;;;5.73;5.23;;;;;;;;;;5028661;28;20424;-73
2021/08/20 12:40:32;;;;;;;5.87;5.37;;;;;;;;;;5028604;28;20499;-72
2021/08/20 12:42:58;;;;;;;5.10;4.70;;;;;;;;;;5017200;28;20502;-73
2021/08/20 12:45:24;;;;;;;5.20;4.77;;;;;;;;;;5028771;28;20432;-71
2021/08/20 12:48:04;;;;;;;5.50;5.00;;;;;;;;;;5028319;28;20428;-71
2021/08/20 12:50:31;;;;;;;4.80;4.40;;;;;;;;;;5028858;28;20421;-71
2021/08/20 12:53:02;;;;;;;5.23;4.83;;;;;;;;;;5030900;28;20427;-71
2021/08/20 12:55:28;;;;;;;4.67;4.27;;;;;;;;;;5047954;28;20435;-71
2021/08/20 12:57:54;;;;;;;5.03;4.63;;;;;;;;;;5026706;28;21061;-72
2021/08/20 13:00:21;;;;;;;5.70;5.20;;;;;;;;;;5028408;28;20491;-72
2021/08/20 13:02:47;;;;;;;6.00;5.50;;;;;;;;;;5034889;28;20758;-72
2021/08/20 13:05:13;;;;;;;5.50;5.07;;;;;;;;;;5039570;28;20458;-72
2021/08/20 13:07:39;;;;;;;5.00;4.60;;;;;;;;;;5028209;28;20408;-72
2021/08/20 13:10:05;;;;;;;4.40;4.10;;;;;;;;;;5024139;28;20486;-72
2021/08/20 13:12:31;;;;;;;5.47;5.00;;;;;;;;;;5025112;28;20460;-71
2021/08/20 13:14:57;;;;;;;7.13;5.43;;;;;;;;;;5031797;28;20518;-71
2021/08/20 13:17:23;;;;;;;7.40;4.37;;;;;;;;;;5028020;28;20777;-71
2021/08/20 13:19:52;;;;;;;5.10;4.70;;;;;;;;;;5027868;28;20471;-72
2021/08/20 13:22:18;;;;;;;5.40;4.90;;;;;;;;;;5038303;28;20466;-72
2021/08/20 13:24:44;;;;;;;5.80;5.20;;;;;;;;;;5042763;28;20447;-73
2021/08/20 13:27:10;;;;;;;5.20;4.70;;;;;;;;;;5036192;28;20511;-72
2021/08/20 13:29:37;;;;;;;5.90;5.40;;;;;;;;;;5036825;28;20918;-72
2021/08/20 13:32:03;;;;;;;5.00;4.60;;;;;;;;;;5028242;28;20428;-71
2021/08/20 13:34:29;;;;;;;5.90;5.37;;;;;;;;;;5028269;28;20440;-72
2021/08/20 13:36:55;;;;;;;5.93;5.37;;;;;;;;;;5028050;28;20542;-72
2021/08/20 13:39:21;;;;;;;5.50;5.00;;;;;;;;;;5030124;28;20854;-72
2021/08/20 13:41:47;;;;;;;5.80;5.27;;;;;;;;;;5027748;28;20658;-72
2021/08/20 13:44:13;;;;;;;6.53;5.97;;;;;;;;;;5028757;28;20535;-71
2021/08/20 13:46:39;;;;;;;6.70;6.10;;;;;;;;;;5039103;28;20448;-71
2021/08/20 13:49:06;;;;;;;6.73;6.13;;;;;;;;;;5027810;28;20481;-72
2021/08/20 13:51:32;;;;;;;6.40;5.80;;;;;;;;;;5029044;28;20441;-71
2021/08/20 13:53:58;;;;;;;6.10;5.50;;;;;;;;;;5029844;28;20548;-72
2021/08/20 13:56:25;;;;;;;7.13;5.00;;;;;;;;;;5031871;28;20920;-72
2021/08/20 13:58:51;;;;;;;6.53;5.93;;;;;;;;;;5042691;28;20460;-71
2021/08/20 14:01:17;;;;;;;6.10;5.50;;;;;;;;;;5031634;28;20494;-72
2021/08/20 14:03:43;;;;;;;6.10;4.97;;;;;;;;;;5031270;28;20437;-72
2021/08/20 14:06:10;;;;;;;5.47;4.90;;;;;;;;;;5026366;28;20584;-71
2021/08/20 14:08:36;;;;;;;5.70;4.83;;;;;;;;;;5046225;28;20411;-72
2021/08/20 14:11:03;;;;;;;5.80;5.20;;;;;;;;;;5041710;28;20468;-71
2021/08/20 14:13:29;;;;;;;5.30;4.80;;;;;;;;;;5046815;28;20422;-72
2021/08/20 14:15:55;;;;;;;5.03;4.50;;;;;;;;;;5044465;28;20503;-71
2021/08/20 14:18:21;;;;;;;6.03;4.07;;;;;;;;;;5046765;28;20428;-71
2021/08/20 14:20:47;;;;;;;5.63;3.87;;;;;;;;;;5043936;28;20468;-71
2021/08/20 14:23:13;;;;;;;5.17;4.30;;;;;;;;;;5030955;28;21191;-72
2021/08/20 14:25:39;;;;;;;5.43;4.77;;;;;;;;;;5030857;28;20498;-73
2021/08/20 14:28:05;;;;;;;5.00;4.40;;;;;;;;;;5030500;28;20451;-72
2021/08/20 14:30:32;;;;;;;4.87;3.43;;;;;;;;;;5030558;28;21226;-73
2021/08/20 14:32:59;;;;;;;3.70;3.40;;;;;;;;;;5030686;28;20552;-71
2021/08/20 14:35:25;;;;;;;3.70;3.40;;;;;;;;;;5030489;28;20451;-71